sensor_id;sensor_type;location;lat;lon;timestamp;pressure;altitude;pressure_sealevel;temperature;humidity
53671;BME280;39571;48.612;8.088;2023-04-21T07:00:09;99403.63;;;30.74;27.66
53671;BME280;39571;48.612;8.088;2023-04-21T07:02:35;99399.66;;;31.29;26.64
53671;BME280;39571;48.612;8.088;2023-04-21T07:05:00;99396.88;;;31.21;25.81
53671;BME280;39571;48.612;8.088;2023-04-21T07:07:26;99391.44;;;32.79;23.98
53671;BME280;39571;48.612;8.088;2023-04-21T07:09:51;99391.59;;;31.37;25.17
53671;BME280;39571;48.612;8.088;2023-04-21T07:12:16;99389.31;;;31.59;24.71
53671;BME280;39571;48.612;8.088;2023-04-21T07:14:42;99384.50;;;33.56;23.05
53671;BME280;39571;48.612;8.088;2023-04-21T07:17:07;99391.16;;;33.45;22.04
53671;BME280;39571;48.612;8.088;2023-04-21T07:19:32;99381.47;;;33.90;22.11
53671;BME280;39571;48.612;8.088;2023-04-21T07:21:58;99381.09;;;33.62;22.08
53671;BME280;39571;48.612;8.088;2023-04-21T07:24:23;99376.25;;;34.11;21.39
53671;BME280;39571;48.612;8.088;2023-04-21T07:26:48;99371.38;;;30.01;24.59
53671;BME280;39571;48.612;8.088;2023-04-21T07:29:14;99394.06;;;24.87;30.08
53671;BME280;39571;48.612;8.088;2023-04-21T07:31:39;99396.38;;;22.48;33.78
53671;BME280;39571;48.612;8.088;2023-04-21T07:34:04;99400.59;;;20.73;37.71
53671;BME280;39571;48.612;8.088;2023-04-21T07:36:30;99398.63;;;19.38;41.12
53671;BME280;39571;48.612;8.088;2023-04-21T07:38:55;99411.03;;;18.21;45.55
53671;BME280;39571;48.612;8.088;2023-04-21T07:41:21;99403.44;;;17.79;48.93
53671;BME280;39571;48.612;8.088;2023-04-21T07:43:46;99406.59;;;16.92;54.89
53671;BME280;39571;48.612;8.088;2023-04-21T07:46:11;99408.44;;;16.29;61.06
53671;BME280;39571;48.612;8.088;2023-04-21T07:48:38;99416.19;;;16.12;66.60
53671;BME280;39571;48.612;8.088;2023-04-21T07:51:04;99421.31;;;15.73;71.20
53671;BME280;39571;48.612;8.088;2023-04-21T07:53:29;99419.09;;;15.39;74.26
53671;BME280;39571;48.612;8.088;2023-04-21T07:55:54;99413.94;;;15.36;83.87
53671;BME280;39571;48.612;8.088;2023-04-21T07:58:20;99413.94;;;15.36;85.18
53671;BME280;39571;48.612;8.088;2023-04-21T08:00:46;99416.00;;;15.28;85.30
53671;BME280;39571;48.612;8.088;2023-04-21T08:03:11;99411.72;;;15.26;82.00
53671;BME280;39571;48.612;8.088;2023-04-21T08:05:37;99412.16;;;15.37;81.92
53671;BME280;39571;48.612;8.088;2023-04-21T08:08:02;99397.31;;;15.57;80.16
53671;BME280;39571;48.612;8.088;2023-04-21T08:10:27;99398.03;;;15.83;76.36
53671;BME280;39571;48.612;8.088;2023-04-21T08:12:53;99387.53;;;17.04;70.57
53671;BME280;39571;48.612;8.088;2023-04-21T08:15:18;99372.19;;;24.47;44.19
53671;BME280;39571;48.612;8.088;2023-04-21T08:17:44;99349.72;;;27.18;33.37
53671;BME280;39571;48.612;8.088;2023-04-21T08:20:10;99335.75;;;29.98;28.88
53671;BME280;39571;48.612;8.088;2023-04-21T08:22:35;99330.94;;;30.88;27.27
53671;BME280;39571;48.612;8.088;2023-04-21T08:25:02;99333.31;;;32.41;25.18
53671;BME280;39571;48.612;8.088;2023-04-21T08:27:27;99320.72;;;34.36;23.22
53671;BME280;39571;48.612;8.088;2023-04-21T08:29:53;99319.66;;;35.92;21.84
53671;BME280;39571;48.612;8.088;2023-04-21T08:32:18;99298.75;;;36.63;20.57
53671;BME280;39571;48.612;8.088;2023-04-21T08:34:48;99303.22;;;37.32;19.63
53671;BME280;39571;48.612;8.088;2023-04-21T08:37:14;99302.75;;;37.70;19.00
53671;BME280;39571;48.612;8.088;2023-04-21T08:39:39;99296.19;;;38.84;18.78
53671;BME280;39571;48.612;8.088;2023-04-21T08:42:06;99296.16;;;38.12;18.39
53671;BME280;39571;48.612;8.088;2023-04-21T08:44:32;99292.28;;;39.24;17.47
53671;BME280;39571;48.612;8.088;2023-04-21T08:46:58;99292.28;;;39.24;17.66
53671;BME280;39571;48.612;8.088;2023-04-21T08:49:28;99291.94;;;39.59;17.41
53671;BME280;39571;48.612;8.088;2023-04-21T08:51:54;99280.94;;;39.14;16.89
53671;BME280;39571;48.612;8.088;2023-04-21T08:54:20;99286.47;;;39.59;16.88
53671;BME280;39571;48.612;8.088;2023-04-21T08:56:47;99287.66;;;39.31;17.40
53671;BME280;39571;48.612;8.088;2023-04-21T08:59:12;99289.06;;;38.44;17.58
53671;BME280;39571;48.612;8.088;2023-04-21T09:04:36;99278.00;;;35.77;19.56
53671;BME280;39571;48.612;8.088;2023-04-21T09:07:01;99284.31;;;30.61;23.63
53671;BME280;39571;48.612;8.088;2023-04-21T09:09:27;99292.06;;;27.41;27.42
53671;BME280;39571;48.612;8.088;2023-04-21T09:11:56;99296.63;;;24.32;31.56
53671;BME280;39571;48.612;8.088;2023-04-21T09:14:30;99292.94;;;22.40;35.45
53671;BME280;39571;48.612;8.088;2023-04-21T09:16:59;99288.22;;;20.83;39.82
53671;BME280;39571;48.612;8.088;2023-04-21T09:19:26;99296.09;;;19.37;45.63
53671;BME280;39571;48.612;8.088;2023-04-21T09:21:52;99305.34;;;18.16;53.77
53671;BME280;39571;48.612;8.088;2023-04-21T09:24:17;99304.06;;;17.53;65.58
53671;BME280;39571;48.612;8.088;2023-04-21T09:26:44;99298.03;;;17.32;74.66
